sensor_id;sensor_type;location;lat;lon;timestamp;temperature;humidity
11188;DHT22;5650;52.700;7.306;2022-11-04T00:01:38;12.00;99.90
11188;DHT22;5650;52.700;7.306;2022-11-04T00:04:05;12.00;99.90
11188;DHT22;5650;52.700;7.306;2022-11-04T00:06:37;11.90;99.90
11188;DHT22;5650;52.700;7.306;2022-11-04T00:09:06;11.90;99.90
11188;DHT22;5650;52.700;7.306;2022-11-04T00:11:40;11.90;99.90
11188;DHT22;5650;52.700;7.306;2022-11-04T00:14:28;11.90;99.90
11188;DHT22;5650;52.700;7.306;2022-11-04T00:16:58;11.90;99.90
11188;DHT22;5650;52.700;7.306;2022-11-04T00:19:43;11.80;99.90
11188;DHT22;5650;52.700;7.306;2022-11-04T00:22:36;11.90;99.90
11188;DHT22;5650;52.700;7.306;2022-11-04T00:25:24;11.80;99.90
11188;DHT22;5650;52.700;7.306;2022-11-04T00:28:13;11.80;99.90
11188;DHT22;5650;52.700;7.306;2022-11-04T00:30:59;11.80;99.90
11188;DHT22;5650;52.700;7.306;2022-11-04T00:33:48;11.80;99.90
11188;DHT22;5650;52.700;7.306;2022-11-04T00:36:18;11.70;99.90
11188;DHT22;5650;52.700;7.306;2022-11-04T00:38:52;11.70;99.90
11188;DHT22;5650;52.700;7.306;2022-11-04T00:41:23;11.70;99.90
11188;DHT22;5650;52.700;7.306;2022-11-04T00:44:01;11.70;99.90
11188;DHT22;5650;52.700;7.306;2022-11-04T00:46:30;11.60;99.90
11188;DHT22;5650;52.700;7.306;2022-11-04T00:49:00;11.60;99.90
11188;DHT22;5650;52.700;7.306;2022-11-04T00:51:28;11.60;99.90
11188;DHT22;5650;52.700;7.306;2022-11-04T00:54:05;11.50;99.90
11188;DHT22;5650;52.700;7.306;2022-11-04T00:56:33;11.50;99.90
11188;DHT22;5650;52.700;7.306;2022-11-04T00:59:12;11.50;99.90
11188;DHT22;5650;52.700;7.306;2022-11-04T01:01:39;11.40;99.90
11188;DHT22;5650;52.700;7.306;2022-11-04T01:04:06;11.40;99.90
11188;DHT22;5650;52.700;7.306;2022-11-04T01:06:39;11.40;99.90
11188;DHT22;5650;52.700;7.306;2022-11-04T01:09:12;11.40;99.90
11188;DHT22;5650;52.700;7.306;2022-11-04T01:11:42;11.30;99.90
11188;DHT22;5650;52.700;7.306;2022-11-04T01:14:13;11.30;99.90
11188;DHT22;5650;52.700;7.306;2022-11-04T01:16:40;11.20;99.90
11188;DHT22;5650;52.700;7.306;2022-11-04T01:19:08;11.20;99.90
11188;DHT22;5650;52.700;7.306;2022-11-04T01:21:38;11.10;99.90
11188;DHT22;5650;52.700;7.306;2022-11-04T01:24:06;11.10;99.90
11188;DHT22;5650;52.700;7.306;2022-11-04T01:26:37;11.10;99.90
11188;DHT22;5650;52.700;7.306;2022-11-04T01:29:17;11.00;99.90
11188;DHT22;5650;52.700;7.306;2022-11-04T01:31:49;11.00;99.90
11188;DHT22;5650;52.700;7.306;2022-11-04T01:34:20;10.90;99.90
11188;DHT22;5650;52.700;7.306;2022-11-04T01:36:50;10.90;99.90
11188;DHT22;5650;52.700;7.306;2022-11-04T01:39:17;10.90;99.90
11188;DHT22;5650;52.700;7.306;2022-11-04T01:41:52;10.90;99.90
11188;DHT22;5650;52.700;7.306;2022-11-04T01:44:47;10.90;99.90
11188;DHT22;5650;52.700;7.306;2022-11-04T01:47:17;10.90;99.90
11188;DHT22;5650;52.700;7.306;2022-11-04T01:49:55;10.90;99.90
11188;DHT22;5650;52.700;7.306;2022-11-04T01:52:30;10.90;99.90
11188;DHT22;5650;52.700;7.306;2022-11-04T01:55:18;11.00;99.90
11188;DHT22;5650;52.700;7.306;2022-11-04T01:57:51;11.00;99.90
11188;DHT22;5650;52.700;7.306;2022-11-04T02:00:30;11.00;99.90
11188;DHT22;5650;52.700;7.306;2022-11-04T02:02:59;11.00;99.90
11188;DHT22;5650;52.700;7.306;2022-11-04T02:05:29;11.10;99.90
11188;DHT22;5650;52.700;7.306;2022-11-04T02:08:00;11.10;99.90
11188;DHT22;5650;52.700;7.306;2022-11-04T02:10:29;11.10;99.90
11188;DHT22;5650;52.700;7.306;2022-11-04T02:13:02;11.10;99.90
11188;DHT22;5650;52.700;7.306;2022-11-04T02:15:36;11.20;99.90
11188;DHT22;5650;52.700;7.306;2022-11-04T02:18:27;11.20;99.90
11188;DHT22;5650;52.700;7.306;2022-11-04T02:25:10;11.20;99.90
11188;DHT22;5650;52.700;7.306;2022-11-04T02:28:11;11.20;99.90
11188;DHT22;5650;52.700;7.306;2022-11-04T02:31:06;11.20;99.90
11188;DHT22;5650;52.700;7.306;2022-11-04T02:33:43;11.20;99.90
11188;DHT22;5650;52.700;7.306;2022-11-04T02:36:20;11.20;99.90
11188;DHT22;5650;52.700;7.306;2022-11-04T02:38:51;11.20;99.90
11188;DHT22;5650;52.700;7.306;2022-11-04T02:41:27;11.20;99.90
11188;DHT22;5650;52.700;7.306;2022-11-04T02:44:11;11.10;99.90
11188;DHT22;5650;52.700;7.306;2022-11-04T02:46:45;11.10;99.90
11188;DHT22;5650;52.700;7.306;2022-11-04T02:49:28;11.10;99.90
11188;DHT22;5650;52.700;7.306;2022-11-04T02:52:01;11.00;99.90
11188;DHT22;5650;52.700;7.306;2022-11-04T02:54:35;11.00;99.90
11188;DHT22;5650;52.700;7.306;2022-11-04T02:57:07;11.00;99.90
11188;DHT22;5650;52.700;7.306;2022-11-04T02:59:38;11.00;99.90
11188;DHT22;5650;52.700;7.306;2022-11-04T03:02:26;10.90;99.90
11188;DHT22;5650;52.700;7.306;2022-11-04T03:05:10;10.90;99.90
11188;DHT22;5650;52.700;7.306;2022-11-04T03:07:53;10.90;99.90
11188;DHT22;5650;52.700;7.306;2022-11-04T03:10:28;10.90;99.90
11188;DHT22;5650;52.700;7.306;2022-11-04T03:12:59;10.90;99.90
11188;DHT22;5650;52.700;7.306;2022-11-04T03:15:31;10.90;99.90
11188;DHT22;5650;52.700;7.306;2022-11-04T03:18:07;10.90;99.90
11188;DHT22;5650;52.700;7.306;2022-11-04T03:20:49;10.90;99.90
11188;DHT22;5650;52.700;7.306;2022-11-04T03:23:28;10.90;99.90
11188;DHT22;5650;52.700;7.306;2022-11-04T03:26:16;10.90;99.90
11188;DHT22;5650;52.700;7.306;2022-11-04T03:28:52;10.90;99.90
11188;DHT22;5650;52.700;7.306;2022-11-04T03:31:41;10.90;99.90
11188;DHT22;5650;52.700;7.306;2022-11-04T03:34:12;10.90;99.90
11188;DHT22;5650;52.700;7.306;2022-11-04T03:36:39;10.90;99.90
11188;DHT22;5650;52.700;7.306;2022-11-04T03:39:07;10.90;99.90
11188;DHT22;5650;52.700;7.306;2022-11-04T03:41:41;10.90;99.90
11188;DHT22;5650;52.700;7.306;2022-11-04T03:44:09;10.80;99.90
11188;DHT22;5650;52.700;7.306;2022-11-04T03:46:38;10.80;99.90
11188;DHT22;5650;52.700;7.306;2022-11-04T03:49:09;10.80;99.90
11188;DHT22;5650;52.700;7.306;2022-11-04T03:51:38;10.80;99.90
11188;DHT22;5650;52.700;7.306;2022-11-04T03:54:08;10.80;99.90
11188;DHT22;5650;52.700;7.306;2022-11-04T04:00:01;10.80;99.90
11188;DHT22;5650;52.700;7.306;2022-11-04T04:02:38;10.70;99.90
11188;DHT22;5650;52.700;7.306;2022-11-04T04:05:14;10.70;99.90
11188;DHT22;5650;52.700;7.306;2022-11-04T04:07:51;10.70;99.90
11188;DHT22;5650;52.700;7.306;2022-11-04T04:10:26;10.70;99.90
11188;DHT22;5650;52.700;7.306;2022-11-04T04:13:26;10.70;99.90
11188;DHT22;5650;52.700;7.306;2022-11-04T04:16:01;10.70;99.90
11188;DHT22;5650;52.700;7.306;2022-11-04T04:18:49;10.70;99.90
11188;DHT22;5650;52.700;7.306;2022-11-04T04:21:20;10.70;99.90
11188;DHT22;5650;52.700;7.306;2022-11-04T04:23:51;10.70;99.90
11188;DHT22;5650;52.700;7.306;2022-11-04T04:26:38;10.60;99.90
11188;DHT22;5650;52.700;7.306;2022-11-04T04:29:24;10.60;99.90
11188;DHT22;5650;52.700;7.306;2022-11-04T04:31:53;10.50;99.90
11188;DHT22;5650;52.700;7.306;2022-11-04T04:34:24;10.50;99.90
11188;DHT22;5650;52.700;7.306;2022-11-04T04:36:59;10.50;99.90
11188;DHT22;5650;52.700;7.306;2022-11-04T04:39:36;10.50;99.90
11188;DHT22;5650;52.700;7.306;2022-11-04T04:42:33;10.50;99.90
11188;DHT22;5650;52.700;7.306;2022-11-04T04:45:29;10.50;99.90
11188;DHT22;5650;52.700;7.306;2022-11-04T04:47:57;10.50;99.90
11188;DHT22;5650;52.700;7.306;2022-11-04T04:50:38;10.50;99.90
11188;DHT22;5650;52.700;7.306;2022-11-04T04:53:06;10.50;99.90
11188;DHT22;5650;52.700;7.306;2022-11-04T04:55:37;10.50;99.90
11188;DHT22;5650;52.700;7.306;2022-11-04T04:58:05;10.50;99.90
11188;DHT22;5650;52.700;7.306;2022-11-04T05:00:34;10.50;99.90
11188;DHT22;5650;52.700;7.306;2022-11-04T05:03:05;10.50;99.90
11188;DHT22;5650;52.700;7.306;2022-11-04T05:05:32;10.50;99.90
11188;DHT22;5650;52.700;7.306;2022-11-04T05:08:06;10.40;99.90
11188;DHT22;5650;52.700;7.306;2022-11-04T05:10:33;10.40;99.90
11188;DHT22;5650;52.700;7.306;2022-11-04T05:13:02;10.40;99.90
11188;DHT22;5650;52.700;7.306;2022-11-04T05:15:53;10.40;99.90
11188;DHT22;5650;52.700;7.306;2022-11-04T05:18:23;10.40;99.90
11188;DHT22;5650;52.700;7.306;2022-11-04T05:21:02;10.40;99.90
11188;DHT22;5650;52.700;7.306;2022-11-04T05:23:29;10.40;99.90
11188;DHT22;5650;52.700;7.306;2022-11-04T05:25:57;10.40;99.90
11188;DHT22;5650;52.700;7.306;2022-11-04T05:28:26;10.40;99.90
11188;DHT22;5650;52.700;7.306;2022-11-04T05:31:01;10.40;99.90
11188;DHT22;5650;52.700;7.306;2022-11-04T05:33:28;10.40;99.90
11188;DHT22;5650;52.700;7.306;2022-11-04T05:36:12;10.40;99.90
11188;DHT22;5650;52.700;7.306;2022-11-04T05:38:42;10.40;99.90
11188;DHT22;5650;52.700;7.306;2022-11-04T05:41:15;10.30;99.90
11188;DHT22;5650;52.700;7.306;2022-11-04T05:43:59;10.30;99.90
11188;DHT22;5650;52.700;7.306;2022-11-04T05:46:26;10.30;99.90
11188;DHT22;5650;52.700;7.306;2022-11-04T05:48:57;10.30;99.90
11188;DHT22;5650;52.700;7.306;2022-11-04T05:51:25;10.30;99.90
11188;DHT22;5650;52.700;7.306;2022-11-04T05:53:53;10.30;99.90
11188;DHT22;5650;52.700;7.306;2022-11-04T05:56:23;10.30;99.90
11188;DHT22;5650;52.700;7.306;2022-11-04T05:58:50;10.30;99.90
11188;DHT22;5650;52.700;7.306;2022-11-04T06:01:33;10.20;99.90
11188;DHT22;5650;52.700;7.306;2022-11-04T06:04:03;10.20;99.90
11188;DHT22;5650;52.700;7.306;2022-11-04T06:06:35;10.20;99.90
11188;DHT22;5650;52.700;7.306;2022-11-04T06:09:18;10.20;99.90
11188;DHT22;5650;52.700;7.306;2022-11-04T06:11:45;10.20;99.90
11188;DHT22;5650;52.700;7.306;2022-11-04T06:14:13;10.20;99.90
11188;DHT22;5650;52.700;7.306;2022-11-04T06:16:41;10.20;99.90
11188;DHT22;5650;52.700;7.306;2022-11-04T06:19:08;10.20;99.90
11188;DHT22;5650;52.700;7.306;2022-11-04T06:21:35;10.10;99.90
11188;DHT22;5650;52.700;7.306;2022-11-04T06:24:03;10.10;99.90
11188;DHT22;5650;52.700;7.306;2022-11-04T06:26:36;10.00;99.90
11188;DHT22;5650;52.700;7.306;2022-11-04T06:29:04;10.00;99.90
11188;DHT22;5650;52.700;7.306;2022-11-04T06:31:31;9.90;99.90
11188;DHT22;5650;52.700;7.306;2022-11-04T06:33:59;9.90;99.90
11188;DHT22;5650;52.700;7.306;2022-11-04T06:36:27;9.90;99.90
11188;DHT22;5650;52.700;7.306;2022-11-04T06:38:54;9.90;99.90
11188;DHT22;5650;52.700;7.306;2022-11-04T06:41:27;9.90;99.90
11188;DHT22;5650;52.700;7.306;2022-11-04T06:43:57;9.90;99.90
11188;DHT22;5650;52.700;7.306;2022-11-04T06:46:26;9.90;99.90
11188;DHT22;5650;52.700;7.306;2022-11-04T06:48:56;9.90;99.90
11188;DHT22;5650;52.700;7.306;2022-11-04T06:51:26;9.90;99.90
11188;DHT22;5650;52.700;7.306;2022-11-04T06:53:56;10.00;99.90
11188;DHT22;5650;52.700;7.306;2022-11-04T06:56:23;10.00;99.90
11188;DHT22;5650;52.700;7.306;2022-11-04T06:58:53;10.00;99.90
11188;DHT22;5650;52.700;7.306;2022-11-04T07:01:22;10.00;99.90
11188;DHT22;5650;52.700;7.306;2022-11-04T07:03:50;10.00;99.90
11188;DHT22;5650;52.700;7.306;2022-11-04T07:06:26;10.00;99.90
11188;DHT22;5650;52.700;7.306;2022-11-04T07:08:57;10.00;99.90
11188;DHT22;5650;52.700;7.306;2022-11-04T07:11:29;10.00;99.90
11188;DHT22;5650;52.700;7.306;2022-11-04T07:14:12;10.00;99.90
11188;DHT22;5650;52.700;7.306;2022-11-04T07:16:42;9.90;99.90
11188;DHT22;5650;52.700;7.306;2022-11-04T07:19:12;9.90;99.90
11188;DHT22;5650;52.700;7.306;2022-11-04T07:21:41;9.90;99.90
11188;DHT22;5650;52.700;7.306;2022-11-04T07:24:13;9.90;99.90
11188;DHT22;5650;52.700;7.306;2022-11-04T07:26:43;9.90;99.90
11188;DHT22;5650;52.700;7.306;2022-11-04T07:29:10;10.00;99.90
11188;DHT22;5650;52.700;7.306;2022-11-04T07:31:44;10.00;99.90
11188;DHT22;5650;52.700;7.306;2022-11-04T07:34:11;10.00;99.90
11188;DHT22;5650;52.700;7.306;2022-11-04T07:36:43;9.90;99.90
11188;DHT22;5650;52.700;7.306;2022-11-04T07:39:10;9.90;99.90
11188;DHT22;5650;52.700;7.306;2022-11-04T07:41:46;9.90;99.90
11188;DHT22;5650;52.700;7.306;2022-11-04T07:44:19;9.90;99.90
11188;DHT22;5650;52.700;7.306;2022-11-04T07:46:47;9.90;99.90
11188;DHT22;5650;52.700;7.306;2022-11-04T07:49:23;9.90;99.90
11188;DHT22;5650;52.700;7.306;2022-11-04T07:51:55;10.00;99.90
11188;DHT22;5650;52.700;7.306;2022-11-04T07:54:22;10.10;99.90
11188;DHT22;5650;52.700;7.306;2022-11-04T07:56:53;10.20;99.90
11188;DHT22;5650;52.700;7.306;2022-11-04T07:59:20;10.20;99.90
11188;DHT22;5650;52.700;7.306;2022-11-04T08:01:47;10.20;99.90
11188;DHT22;5650;52.700;7.306;2022-11-04T08:04:14;10.20;99.90
11188;DHT22;5650;52.700;7.306;2022-11-04T08:06:41;10.20;99.90
11188;DHT22;5650;52.700;7.306;2022-11-04T08:09:09;10.20;99.90
11188;DHT22;5650;52.700;7.306;2022-11-04T08:11:36;10.30;99.90
11188;DHT22;5650;52.700;7.306;2022-11-04T08:14:11;10.30;99.90
11188;DHT22;5650;52.700;7.306;2022-11-04T08:16:38;10.30;99.90
11188;DHT22;5650;52.700;7.306;2022-11-04T08:19:14;10.30;99.90
11188;DHT22;5650;52.700;7.306;2022-11-04T08:21:41;10.40;99.90
11188;DHT22;5650;52.700;7.306;2022-11-04T08:24:10;10.40;99.90
11188;DHT22;5650;52.700;7.306;2022-11-04T08:26:37;10.50;99.90
11188;DHT22;5650;52.700;7.306;2022-11-04T08:29:13;10.50;99.90
11188;DHT22;5650;52.700;7.306;2022-11-04T08:31:40;10.50;99.90
11188;DHT22;5650;52.700;7.306;2022-11-04T08:34:13;10.50;99.90
11188;DHT22;5650;52.700;7.306;2022-11-04T08:36:43;10.50;99.90
11188;DHT22;5650;52.700;7.306;2022-11-04T08:39:14;10.50;99.90
11188;DHT22;5650;52.700;7.306;2022-11-04T08:41:42;10.50;99.90
11188;DHT22;5650;52.700;7.306;2022-11-04T08:44:19;10.60;99.90
11188;DHT22;5650;52.700;7.306;2022-11-04T08:46:47;10.60;99.90
11188;DHT22;5650;52.700;7.306;2022-11-04T08:49:14;10.60;99.90
11188;DHT22;5650;52.700;7.306;2022-11-04T08:51:44;10.50;99.90
11188;DHT22;5650;52.700;7.306;2022-11-04T08:54:13;10.60;99.90
11188;DHT22;5650;52.700;7.306;2022-11-04T08:56:41;10.60;99.90
11188;DHT22;5650;52.700;7.306;2022-11-04T08:59:09;10.70;99.90
11188;DHT22;5650;52.700;7.306;2022-11-04T09:01:39;10.70;99.90
11188;DHT22;5650;52.700;7.306;2022-11-04T09:04:10;10.80;99.90
11188;DHT22;5650;52.700;7.306;2022-11-04T09:06:39;10.80;99.90
11188;DHT22;5650;52.700;7.306;2022-11-04T09:09:09;10.80;99.90
11188;DHT22;5650;52.700;7.306;2022-11-04T09:11:41;10.80;99.90
11188;DHT22;5650;52.700;7.306;2022-11-04T09:14:09;10.80;99.90
11188;DHT22;5650;52.700;7.306;2022-11-04T09:16:40;10.80;99.90
11188;DHT22;5650;52.700;7.306;2022-11-04T09:19:07;10.80;99.90
11188;DHT22;5650;52.700;7.306;2022-11-04T09:21:35;10.80;99.90
11188;DHT22;5650;52.700;7.306;2022-11-04T09:24:08;10.90;99.90
11188;DHT22;5650;52.700;7.306;2022-11-04T09:26:38;11.00;99.90
11188;DHT22;5650;52.700;7.306;2022-11-04T09:29:11;11.10;99.90
11188;DHT22;5650;52.700;7.306;2022-11-04T09:31:41;11.20;99.90
11188;DHT22;5650;52.700;7.306;2022-11-04T09:34:09;11.20;99.90
11188;DHT22;5650;52.700;7.306;2022-11-04T09:36:36;11.30;99.90
11188;DHT22;5650;52.700;7.306;2022-11-04T09:39:06;11.30;99.90
11188;DHT22;5650;52.700;7.306;2022-11-04T09:44:47;11.30;99.90
11188;DHT22;5650;52.700;7.306;2022-11-04T09:47:15;11.40;99.90
11188;DHT22;5650;52.700;7.306;2022-11-04T09:49:45;11.40;99.90
11188;DHT22;5650;52.700;7.306;2022-11-04T09:52:17;11.40;99.90
11188;DHT22;5650;52.700;7.306;2022-11-04T09:54:51;11.50;99.90
11188;DHT22;5650;52.700;7.306;2022-11-04T09:57:22;11.60;99.90
11188;DHT22;5650;52.700;7.306;2022-11-04T09:59:59;11.60;99.90
11188;DHT22;5650;52.700;7.306;2022-11-04T10:02:52;11.70;99.90
11188;DHT22;5650;52.700;7.306;2022-11-04T10:05:38;11.90;99.90
11188;DHT22;5650;52.700;7.306;2022-11-04T10:08:46;12.00;99.90
11188;DHT22;5650;52.700;7.306;2022-11-04T10:11:24;12.20;99.90
11188;DHT22;5650;52.700;7.306;2022-11-04T10:14:26;12.20;99.90
11188;DHT22;5650;52.700;7.306;2022-11-04T10:17:04;12.20;99.90
11188;DHT22;5650;52.700;7.306;2022-11-04T10:19:41;12.10;99.90
11188;DHT22;5650;52.700;7.306;2022-11-04T10:22:15;12.10;99.90
11188;DHT22;5650;52.700;7.306;2022-11-04T10:24:51;12.00;99.90
11188;DHT22;5650;52.700;7.306;2022-11-04T10:27:22;11.90;99.90
11188;DHT22;5650;52.700;7.306;2022-11-04T10:30:01;11.80;99.90
11188;DHT22;5650;52.700;7.306;2022-11-04T10:32:34;11.90;99.90
11188;DHT22;5650;52.700;7.306;2022-11-04T10:35:14;12.00;99.90
11188;DHT22;5650;52.700;7.306;2022-11-04T10:37:44;12.20;99.90
11188;DHT22;5650;52.700;7.306;2022-11-04T10:40:19;12.30;99.90
11188;DHT22;5650;52.700;7.306;2022-11-04T10:42:48;12.40;99.90
11188;DHT22;5650;52.700;7.306;2022-11-04T10:45:35;12.50;99.90
11188;DHT22;5650;52.700;7.306;2022-11-04T10:48:14;12.50;99.90
11188;DHT22;5650;52.700;7.306;2022-11-04T10:50:53;12.40;99.90
11188;DHT22;5650;52.700;7.306;2022-11-04T10:53:23;12.30;99.90
11188;DHT22;5650;52.700;7.306;2022-11-04T10:56:05;12.20;99.90
11188;DHT22;5650;52.700;7.306;2022-11-04T10:58:38;12.20;99.90
11188;DHT22;5650;52.700;7.306;2022-11-04T11:01:27;12.10;99.90
11188;DHT22;5650;52.700;7.306;2022-11-04T11:03:55;12.00;99.90
11188;DHT22;5650;52.700;7.306;2022-11-04T11:06:27;12.10;99.90
11188;DHT22;5650;52.700;7.306;2022-11-04T11:08:59;12.00;99.90
11188;DHT22;5650;52.700;7.306;2022-11-04T11:11:42;12.00;99.90
11188;DHT22;5650;52.700;7.306;2022-11-04T11:14:16;12.00;99.90
11188;DHT22;5650;52.700;7.306;2022-11-04T11:16:45;12.00;99.90
11188;DHT22;5650;52.700;7.306;2022-11-04T11:19:20;11.90;99.90
11188;DHT22;5650;52.700;7.306;2022-11-04T11:21:51;11.90;99.90
11188;DHT22;5650;52.700;7.306;2022-11-04T11:24:22;11.80;99.90
11188;DHT22;5650;52.700;7.306;2022-11-04T11:26:55;11.80;99.90
11188;DHT22;5650;52.700;7.306;2022-11-04T11:29:28;11.90;99.90
11188;DHT22;5650;52.700;7.306;2022-11-04T11:31:57;12.00;99.90
11188;DHT22;5650;52.700;7.306;2022-11-04T11:34:30;12.00;99.90
11188;DHT22;5650;52.700;7.306;2022-11-04T11:37:01;12.10;99.90
11188;DHT22;5650;52.700;7.306;2022-11-04T11:39:31;12.10;99.90
11188;DHT22;5650;52.700;7.306;2022-11-04T11:42:05;12.20;99.90
11188;DHT22;5650;52.700;7.306;2022-11-04T11:44:44;12.20;99.90
11188;DHT22;5650;52.700;7.306;2022-11-04T11:47:20;12.20;99.90
11188;DHT22;5650;52.700;7.306;2022-11-04T11:50:03;12.10;99.90
11188;DHT22;5650;52.700;7.306;2022-11-04T11:52:32;12.10;99.90
11188;DHT22;5650;52.700;7.306;2022-11-04T11:55:06;12.20;99.90
11188;DHT22;5650;52.700;7.306;2022-11-04T11:57:46;12.20;99.90
11188;DHT22;5650;52.700;7.306;2022-11-04T12:00:17;12.30;99.90
11188;DHT22;5650;52.700;7.306;2022-11-04T12:02:52;12.30;99.90
11188;DHT22;5650;52.700;7.306;2022-11-04T12:05:32;12.30;99.90
11188;DHT22;5650;52.700;7.306;2022-11-04T12:08:12;12.30;99.90
11188;DHT22;5650;52.700;7.306;2022-11-04T12:10:49;12.30;99.90
11188;DHT22;5650;52.700;7.306;2022-11-04T12:13:23;12.30;99.90
11188;DHT22;5650;52.700;7.306;2022-11-04T12:16:09;12.40;99.90
11188;DHT22;5650;52.700;7.306;2022-11-04T12:19:05;12.30;99.90
11188;DHT22;5650;52.700;7.306;2022-11-04T12:21:38;12.30;99.90
11188;DHT22;5650;52.700;7.306;2022-11-04T12:24:15;12.40;99.90
11188;DHT22;5650;52.700;7.306;2022-11-04T12:26:53;12.40;99.90
11188;DHT22;5650;52.700;7.306;2022-11-04T12:29:38;12.40;99.90
11188;DHT22;5650;52.700;7.306;2022-11-04T12:32:18;12.50;99.90
11188;DHT22;5650;52.700;7.306;2022-11-04T12:35:02;12.40;99.90
11188;DHT22;5650;52.700;7.306;2022-11-04T12:37:51;12.50;99.90
11188;DHT22;5650;52.700;7.306;2022-11-04T12:40:23;12.50;99.90
11188;DHT22;5650;52.700;7.306;2022-11-04T12:43:05;12.50;99.90
11188;DHT22;5650;52.700;7.306;2022-11-04T12:45:46;12.50;99.90
11188;DHT22;5650;52.700;7.306;2022-11-04T12:48:42;12.50;99.90
11188;DHT22;5650;52.700;7.306;2022-11-04T12:51:30;12.50;99.90
11188;DHT22;5650;52.700;7.306;2022-11-04T12:54:13;12.50;99.90
11188;DHT22;5650;52.700;7.306;2022-11-04T12:56:46;12.50;99.90
11188;DHT22;5650;52.700;7.306;2022-11-04T12:59:32;12.50;99.90
11188;DHT22;5650;52.700;7.306;2022-11-04T13:02:12;12.50;99.90
11188;DHT22;5650;52.700;7.306;2022-11-04T13:04:57;12.50;99.90
11188;DHT22;5650;52.700;7.306;2022-11-04T13:07:31;12.50;99.90
11188;DHT22;5650;52.700;7.306;2022-11-04T13:10:05;12.50;99.90
11188;DHT22;5650;52.700;7.306;2022-11-04T13:12:37;12.50;99.90
11188;DHT22;5650;52.700;7.306;2022-11-04T13:15:14;12.50;99.90
11188;DHT22;5650;52.700;7.306;2022-11-04T13:17:48;12.50;99.90
11188;DHT22;5650;52.700;7.306;2022-11-04T13:20:27;12.60;99.90
11188;DHT22;5650;52.700;7.306;2022-11-04T13:23:01;12.60;99.90
11188;DHT22;5650;52.700;7.306;2022-11-04T13:25:44;12.70;99.90
11188;DHT22;5650;52.700;7.306;2022-11-04T13:28:14;12.70;99.90
11188;DHT22;5650;52.700;7.306;2022-11-04T13:30:51;12.70;99.90
11188;DHT22;5650;52.700;7.306;2022-11-04T13:33:28;12.70;99.90
11188;DHT22;5650;52.700;7.306;2022-11-04T13:36:12;12.70;99.90
11188;DHT22;5650;52.700;7.306;2022-11-04T13:38:46;12.70;99.90
11188;DHT22;5650;52.700;7.306;2022-11-04T13:44:28;12.70;99.90
11188;DHT22;5650;52.700;7.306;2022-11-04T13:47:03;12.80;99.90
11188;DHT22;5650;52.700;7.306;2022-11-04T13:49:34;12.80;99.90
11188;DHT22;5650;52.700;7.306;2022-11-04T13:52:05;12.90;99.90
11188;DHT22;5650;52.700;7.306;2022-11-04T13:54:43;12.90;99.90
11188;DHT22;5650;52.700;7.306;2022-11-04T13:57:16;13.00;99.90
11188;DHT22;5650;52.700;7.306;2022-11-04T14:00:20;13.00;99.90
11188;DHT22;5650;52.700;7.306;2022-11-04T14:02:58;13.00;99.90
11188;DHT22;5650;52.700;7.306;2022-11-04T14:05:55;13.00;99.90
11188;DHT22;5650;52.700;7.306;2022-11-04T14:08:30;13.00;99.90
11188;DHT22;5650;52.700;7.306;2022-11-04T14:11:05;12.90;99.90
11188;DHT22;5650;52.700;7.306;2022-11-04T14:14:02;12.80;99.90
11188;DHT22;5650;52.700;7.306;2022-11-04T14:16:45;12.70;99.90
11188;DHT22;5650;52.700;7.306;2022-11-04T14:22:30;12.50;99.90
11188;DHT22;5650;52.700;7.306;2022-11-04T14:24:59;12.40;99.90
11188;DHT22;5650;52.700;7.306;2022-11-04T14:27:43;12.30;99.90
11188;DHT22;5650;52.700;7.306;2022-11-04T14:36:26;12.10;99.90
11188;DHT22;5650;52.700;7.306;2022-11-04T14:39:01;12.10;99.90
11188;DHT22;5650;52.700;7.306;2022-11-04T14:41:54;12.00;99.90
11188;DHT22;5650;52.700;7.306;2022-11-04T14:44:42;11.90;99.90
11188;DHT22;5650;52.700;7.306;2022-11-04T14:47:16;11.90;99.90
11188;DHT22;5650;52.700;7.306;2022-11-04T14:49:45;11.90;99.90
11188;DHT22;5650;52.700;7.306;2022-11-04T14:52:20;11.90;99.90
11188;DHT22;5650;52.700;7.306;2022-11-04T14:54:57;11.90;99.90
11188;DHT22;5650;52.700;7.306;2022-11-04T14:57:29;11.90;99.90
11188;DHT22;5650;52.700;7.306;2022-11-04T15:00:34;11.90;99.90
11188;DHT22;5650;52.700;7.306;2022-11-04T15:03:13;11.90;99.90
11188;DHT22;5650;52.700;7.306;2022-11-04T15:05:54;11.80;99.90
11188;DHT22;5650;52.700;7.306;2022-11-04T15:08:26;11.80;99.90
11188;DHT22;5650;52.700;7.306;2022-11-04T15:10:58;11.80;99.90
11188;DHT22;5650;52.700;7.306;2022-11-04T15:13:25;11.80;99.90
11188;DHT22;5650;52.700;7.306;2022-11-04T15:15:55;11.80;99.90
11188;DHT22;5650;52.700;7.306;2022-11-04T15:18:25;11.70;99.90
11188;DHT22;5650;52.700;7.306;2022-11-04T15:20:56;11.70;99.90
11188;DHT22;5650;52.700;7.306;2022-11-04T15:23:29;11.60;99.90
11188;DHT22;5650;52.700;7.306;2022-11-04T15:25:58;11.60;99.90
11188;DHT22;5650;52.700;7.306;2022-11-04T15:28:34;11.60;99.90
11188;DHT22;5650;52.700;7.306;2022-11-04T15:31:18;11.60;99.90
11188;DHT22;5650;52.700;7.306;2022-11-04T15:33:48;11.60;99.90
11188;DHT22;5650;52.700;7.306;2022-11-04T15:36:18;11.60;99.90
11188;DHT22;5650;52.700;7.306;2022-11-04T15:38:52;11.50;99.90
11188;DHT22;5650;52.700;7.306;2022-11-04T15:41:22;11.50;99.90
11188;DHT22;5650;52.700;7.306;2022-11-04T15:44:15;11.40;99.90
11188;DHT22;5650;52.700;7.306;2022-11-04T15:46:54;11.40;99.90
11188;DHT22;5650;52.700;7.306;2022-11-04T15:49:26;11.30;99.90
11188;DHT22;5650;52.700;7.306;2022-11-04T15:51:58;11.20;99.90
11188;DHT22;5650;52.700;7.306;2022-11-04T15:54:30;11.20;99.90
11188;DHT22;5650;52.700;7.306;2022-11-04T15:57:01;11.10;99.90
11188;DHT22;5650;52.700;7.306;2022-11-04T15:59:44;11.00;99.90
11188;DHT22;5650;52.700;7.306;2022-11-04T16:02:21;10.90;99.90
11188;DHT22;5650;52.700;7.306;2022-11-04T16:05:06;10.90;99.90
11188;DHT22;5650;52.700;7.306;2022-11-04T16:07:37;10.80;99.90
11188;DHT22;5650;52.700;7.306;2022-11-04T16:10:24;10.70;99.90
11188;DHT22;5650;52.700;7.306;2022-11-04T16:12:54;10.70;99.90
11188;DHT22;5650;52.700;7.306;2022-11-04T16:15:42;10.60;99.90
11188;DHT22;5650;52.700;7.306;2022-11-04T16:18:21;10.50;99.90
11188;DHT22;5650;52.700;7.306;2022-11-04T16:20:50;10.50;99.90
11188;DHT22;5650;52.700;7.306;2022-11-04T16:23:27;10.40;99.90
11188;DHT22;5650;52.700;7.306;2022-11-04T16:26:07;10.40;99.90
11188;DHT22;5650;52.700;7.306;2022-11-04T16:28:37;10.40;99.90
11188;DHT22;5650;52.700;7.306;2022-11-04T16:31:06;10.30;99.90
11188;DHT22;5650;52.700;7.306;2022-11-04T16:33:35;10.30;99.90
11188;DHT22;5650;52.700;7.306;2022-11-04T16:36:11;10.30;99.90
11188;DHT22;5650;52.700;7.306;2022-11-04T16:38:58;10.30;99.90
11188;DHT22;5650;52.700;7.306;2022-11-04T16:41:31;10.20;99.90
11188;DHT22;5650;52.700;7.306;2022-11-04T16:43:59;10.20;99.90
11188;DHT22;5650;52.700;7.306;2022-11-04T16:46:26;10.20;99.90
11188;DHT22;5650;52.700;7.306;2022-11-04T16:48:57;10.20;99.90
11188;DHT22;5650;52.700;7.306;2022-11-04T16:51:29;10.20;99.90
11188;DHT22;5650;52.700;7.306;2022-11-04T16:53:59;10.10;99.90
11188;DHT22;5650;52.700;7.306;2022-11-04T16:56:26;10.20;99.90
11188;DHT22;5650;52.700;7.306;2022-11-04T16:58:54;10.10;99.90